Time;durP1;ratioP1;P1;durP2;ratioP2;P2;SDS_P1;SDS_P2;PMS_P1;PMS_P2;Temp;Humidity;BMP_temperature;BMP_pressure;BME280_temperature;BME280_humidity;BME280_pressure;Samples;Min_cycle;Max_cycle;Signal;HPM_P1;HPM_P2
2021/05/09 00:00:13;;;;;;;6.22;5.57;;;;;;;;;;5008009;28;20173;-43
2021/05/09 00:02:38;;;;;;;5.23;4.83;;;;;;;;;;5007702;28;20188;-43
2021/05/09 00:05:04;;;;;;;5.97;5.57;;;;;;;;;;5008443;28;20593;-44
2021/05/09 00:07:29;;;;;;;5.70;5.20;;;;;;;;;;5003605;28;20547;-45
2021/05/09 00:09:54;;;;;;;5.90;5.50;;;;;;;;;;5008258;28;20223;-44
2021/05/09 00:12:19;;;;;;;5.87;5.43;;;;;;;;;;5011172;28;20532;-44
2021/05/09 00:14:44;;;;;;;5.82;5.30;;;;;;;;;;5004923;28;20664;-44
2021/05/09 00:17:09;;;;;;;6.30;5.70;;;;;;;;;;5015192;28;20205;-43
2021/05/09 00:19:35;;;;;;;6.07;5.50;;;;;;;;;;5010142;28;20178;-43
2021/05/09 00:22:00;;;;;;;6.10;5.60;;;;;;;;;;5009406;28;20228;-44
2021/05/09 00:24:25;;;;;;;5.70;5.20;;;;;;;;;;4998181;28;20179;-44
2021/05/09 00:26:50;;;;;;;5.50;5.10;;;;;;;;;;5010669;28;20169;-44
2021/05/09 00:29:15;;;;;;;6.30;5.70;;;;;;;;;;5006061;28;20193;-46
2021/05/09 00:31:40;;;;;;;5.47;4.97;;;;;;;;;;5010364;28;20176;-45
2021/05/09 00:34:06;;;;;;;5.97;5.47;;;;;;;;;;5007482;28;20178;-45
2021/05/09 00:36:31;;;;;;;7.80;5.70;;;;;;;;;;5010464;28;20256;-45
2021/05/09 00:38:56;;;;;;;6.10;5.60;;;;;;;;;;5003261;28;20186;-44
2021/05/09 00:41:21;;;;;;;5.87;5.47;;;;;;;;;;4995724;28;20624;-45
2021/05/09 00:43:46;;;;;;;5.82;5.32;;;;;;;;;;5009772;28;20836;-45
2021/05/09 00:46:11;;;;;;;5.30;4.90;;;;;;;;;;5010046;28;20637;-45
2021/05/09 00:48:37;;;;;;;5.60;5.20;;;;;;;;;;5006572;28;20178;-44
2021/05/09 00:51:02;;;;;;;5.70;5.23;;;;;;;;;;5004075;28;20267;-46
2021/05/09 00:53:27;;;;;;;5.67;5.27;;;;;;;;;;4998450;28;20591;-44
2021/05/09 00:55:54;;;;;;;5.33;4.87;;;;;;;;;;5007742;28;20178;-44
2021/05/09 00:58:20;;;;;;;5.57;5.07;;;;;;;;;;5009940;28;20172;-45
2021/05/09 01:00:45;;;;;;;5.37;4.87;;;;;;;;;;4999243;28;20975;-44
2021/05/09 01:03:12;;;;;;;5.20;4.80;;;;;;;;;;5009913;28;20235;-45
2021/05/09 01:05:37;;;;;;;5.50;5.10;;;;;;;;;;4993658;28;20233;-44
2021/05/09 01:08:02;;;;;;;5.40;5.00;;;;;;;;;;4991477;28;20651;-44
2021/05/09 01:10:28;;;;;;;5.80;5.00;;;;;;;;;;5005054;28;20228;-44
2021/05/09 01:12:53;;;;;;;5.47;4.97;;;;;;;;;;5007673;28;20324;-45
2021/05/09 01:15:18;;;;;;;5.63;5.23;;;;;;;;;;5002998;28;20244;-45
2021/05/09 01:17:43;;;;;;;5.27;4.87;;;;;;;;;;5009473;28;20186;-45
2021/05/09 01:20:15;;;;;;;5.72;5.22;;;;;;;;;;4998074;28;20178;-45
2021/05/09 01:22:40;;;;;;;5.40;5.00;;;;;;;;;;4999622;28;20543;-44
2021/05/09 01:25:06;;;;;;;6.00;5.40;;;;;;;;;;4999140;28;20609;-44
2021/05/09 01:27:32;;;;;;;5.20;4.80;;;;;;;;;;4998719;28;20236;-45
2021/05/09 01:29:57;;;;;;;5.37;4.87;;;;;;;;;;5007781;28;20720;-45
2021/05/09 01:32:22;;;;;;;5.30;4.90;;;;;;;;;;5006426;28;20222;-45
2021/05/09 01:34:47;;;;;;;5.57;5.18;;;;;;;;;;5013888;28;20170;-44
2021/05/09 01:37:12;;;;;;;4.77;4.37;;;;;;;;;;4989882;28;20181;-45
2021/05/09 01:39:37;;;;;;;5.45;5.05;;;;;;;;;;4996849;28;20186;-45
2021/05/09 01:42:03;;;;;;;5.50;5.00;;;;;;;;;;5009334;28;20186;-44
2021/05/09 01:44:28;;;;;;;5.87;5.40;;;;;;;;;;5009387;28;20182;-44
2021/05/09 01:46:53;;;;;;;4.93;4.60;;;;;;;;;;5008467;28;20177;-45
2021/05/09 01:49:18;;;;;;;4.85;4.55;;;;;;;;;;5008950;28;20190;-45
2021/05/09 01:51:43;;;;;;;5.77;5.27;;;;;;;;;;5003028;28;20651;-45
2021/05/09 01:54:09;;;;;;;5.23;4.83;;;;;;;;;;4996536;28;20647;-44
2021/05/09 01:56:34;;;;;;;5.10;4.70;;;;;;;;;;4996553;28;20217;-45
2021/05/09 01:58:59;;;;;;;5.20;4.80;;;;;;;;;;4999283;28;20398;-47
2021/05/09 02:01:24;;;;;;;6.25;5.20;;;;;;;;;;5003546;28;20202;-46
2021/05/09 02:03:49;;;;;;;5.13;4.73;;;;;;;;;;5008822;28;20257;-45
2021/05/09 02:06:14;;;;;;;5.15;4.75;;;;;;;;;;5000544;28;20864;-45
2021/05/09 02:08:39;;;;;;;5.15;4.85;;;;;;;;;;4994064;28;20257;-45
2021/05/09 02:11:05;;;;;;;5.05;4.65;;;;;;;;;;4997323;28;20211;-45
2021/05/09 02:13:30;;;;;;;4.85;4.45;;;;;;;;;;4989410;28;20629;-45
2021/05/09 02:15:55;;;;;;;5.30;4.90;;;;;;;;;;5007959;28;20213;-45
2021/05/09 02:18:20;;;;;;;5.38;4.97;;;;;;;;;;5011725;28;20184;-45
2021/05/09 02:20:45;;;;;;;5.50;5.07;;;;;;;;;;5002273;28;20657;-45
2021/05/09 02:23:11;;;;;;;5.33;4.83;;;;;;;;;;5003597;28;20257;-45
2021/05/09 02:25:36;;;;;;;5.77;5.27;;;;;;;;;;5008084;28;20645;-45
2021/05/09 02:28:02;;;;;;;5.33;4.93;;;;;;;;;;4997938;28;20662;-45
2021/05/09 02:30:27;;;;;;;5.73;5.23;;;;;;;;;;5008269;28;20351;-45
2021/05/09 02:32:52;;;;;;;4.70;4.30;;;;;;;;;;5012363;28;20183;-45
2021/05/09 02:35:17;;;;;;;5.28;4.82;;;;;;;;;;5008811;28;20542;-45
2021/05/09 02:37:42;;;;;;;6.23;5.73;;;;;;;;;;4992985;28;20171;-45
2021/05/09 02:40:08;;;;;;;5.87;5.30;;;;;;;;;;5004042;28;20173;-45
2021/05/09 02:42:33;;;;;;;6.90;5.53;;;;;;;;;;5006295;28;20184;-45
2021/05/09 02:44:59;;;;;;;6.30;5.70;;;;;;;;;;5011209;28;20174;-45
2021/05/09 02:47:30;;;;;;;4.65;4.35;;;;;;;;;;5001738;28;20236;-45
2021/05/09 02:49:56;;;;;;;4.93;4.53;;;;;;;;;;4996362;28;20827;-45
2021/05/09 02:52:21;;;;;;;5.83;5.33;;;;;;;;;;4997392;28;20700;-45
2021/05/09 02:54:46;;;;;;;6.17;5.60;;;;;;;;;;4993490;28;20675;-45
2021/05/09 02:57:11;;;;;;;6.53;5.93;;;;;;;;;;5009386;28;20182;-45
2021/05/09 02:59:37;;;;;;;5.88;5.40;;;;;;;;;;5009692;28;20240;-45
2021/05/09 03:02:02;;;;;;;5.68;5.18;;;;;;;;;;5010492;28;20181;-45
2021/05/09 03:04:27;;;;;;;6.47;5.93;;;;;;;;;;5004881;28;20268;-45
2021/05/09 03:06:52;;;;;;;5.45;5.05;;;;;;;;;;5010723;28;20240;-45
2021/05/09 03:09:17;;;;;;;5.47;5.07;;;;;;;;;;5009626;28;20224;-45
2021/05/09 03:11:42;;;;;;;5.60;5.20;;;;;;;;;;5004107;28;20652;-45
2021/05/09 03:14:07;;;;;;;5.75;5.25;;;;;;;;;;5011562;28;20525;-45
2021/05/09 03:16:33;;;;;;;5.25;4.95;;;;;;;;;;5004651;28;20644;-45
2021/05/09 03:18:58;;;;;;;5.75;5.25;;;;;;;;;;5011715;28;20177;-45
2021/05/09 03:21:23;;;;;;;6.00;5.50;;;;;;;;;;5007964;28;20188;-45
2021/05/09 03:23:48;;;;;;;6.40;5.90;;;;;;;;;;5007088;28;20178;-45
2021/05/09 03:26:13;;;;;;;6.30;5.83;;;;;;;;;;5010141;28;20203;-44
2021/05/09 03:28:39;;;;;;;6.63;6.10;;;;;;;;;;5012260;28;20257;-45
2021/05/09 03:31:04;;;;;;;6.00;5.50;;;;;;;;;;5006274;28;20205;-44
2021/05/09 03:33:29;;;;;;;13.80;6.00;;;;;;;;;;5011664;28;20197;-44
2021/05/09 03:35:54;;;;;;;6.22;5.75;;;;;;;;;;5006797;28;20190;-45
2021/05/09 03:38:20;;;;;;;5.53;5.13;;;;;;;;;;5020868;28;20586;-44
2021/05/09 03:40:45;;;;;;;6.05;5.55;;;;;;;;;;5007971;28;20205;-45
2021/05/09 03:43:10;;;;;;;6.03;5.43;;;;;;;;;;5010838;28;20189;-44
2021/05/09 03:45:35;;;;;;;6.80;5.97;;;;;;;;;;5009202;28;20534;-45
2021/05/09 03:48:00;;;;;;;6.28;5.72;;;;;;;;;;5008046;28;20179;-44
2021/05/09 03:50:25;;;;;;;6.80;6.20;;;;;;;;;;5007004;28;20213;-45
2021/05/09 03:52:51;;;;;;;6.57;5.97;;;;;;;;;;5002862;28;20178;-44
2021/05/09 03:55:16;;;;;;;6.40;5.85;;;;;;;;;;5009616;28;20177;-43
2021/05/09 03:57:41;;;;;;;6.97;6.38;;;;;;;;;;5002524;28;20567;-44
2021/05/09 04:00:06;;;;;;;6.10;5.60;;;;;;;;;;5014569;28;20162;-44
2021/05/09 04:02:31;;;;;;;6.37;5.77;;;;;;;;;;5010164;28;20652;-43
2021/05/09 04:04:57;;;;;;;5.30;4.90;;;;;;;;;;5009066;28;20602;-44
2021/05/09 04:07:22;;;;;;;6.57;5.97;;;;;;;;;;5003562;28;20544;-44
2021/05/09 04:09:47;;;;;;;6.13;5.63;;;;;;;;;;5003124;28;20260;-43
2021/05/09 04:12:12;;;;;;;6.05;5.55;;;;;;;;;;5008464;28;20170;-44
2021/05/09 04:14:37;;;;;;;7.97;5.70;;;;;;;;;;5001660;28;20216;-44
2021/05/09 04:17:03;;;;;;;6.77;6.27;;;;;;;;;;5009264;28;20182;-44
2021/05/09 04:19:28;;;;;;;6.93;6.23;;;;;;;;;;5010791;28;20191;-44
2021/05/09 04:21:53;;;;;;;6.07;5.63;;;;;;;;;;4994007;28;20217;-44
2021/05/09 04:24:18;;;;;;;6.20;5.60;;;;;;;;;;5007446;28;20187;-45
2021/05/09 04:26:43;;;;;;;6.10;5.60;;;;;;;;;;5015499;28;20633;-44
2021/05/09 04:29:08;;;;;;;6.63;6.03;;;;;;;;;;5007848;28;20234;-43
2021/05/09 04:31:34;;;;;;;7.27;6.57;;;;;;;;;;4999989;28;20547;-44
2021/05/09 04:34:00;;;;;;;6.70;6.10;;;;;;;;;;5008490;28;20184;-44
2021/05/09 04:36:25;;;;;;;6.13;5.63;;;;;;;;;;5004906;28;20184;-44
2021/05/09 04:38:50;;;;;;;6.97;6.43;;;;;;;;;;4994508;28;20622;-44
2021/05/09 04:41:15;;;;;;;6.68;6.07;;;;;;;;;;5009081;28;20683;-44
2021/05/09 04:43:40;;;;;;;7.10;6.50;;;;;;;;;;5001970;28;20173;-44
2021/05/09 04:46:05;;;;;;;6.07;5.57;;;;;;;;;;5005506;28;20189;-44
2021/05/09 04:48:31;;;;;;;6.67;6.17;;;;;;;;;;5009513;28;20183;-44
2021/05/09 04:50:56;;;;;;;6.23;5.73;;;;;;;;;;4994738;28;20215;-44
2021/05/09 04:53:31;;;;;;;5.87;5.37;;;;;;;;;;4995648;28;20231;-44
2021/05/09 04:55:58;;;;;;;6.63;6.03;;;;;;;;;;4994318;28;20184;-44
2021/05/09 04:58:23;;;;;;;6.87;6.27;;;;;;;;;;5019269;28;20629;-44
2021/05/09 05:01:00;;;;;;;7.33;6.73;;;;;;;;;;5020587;28;20651;-45
2021/05/09 05:03:25;;;;;;;5.87;5.47;;;;;;;;;;5001681;28;20753;-44
2021/05/09 05:05:50;;;;;;;7.17;6.57;;;;;;;;;;5003916;28;20702;-43
2021/05/09 05:08:15;;;;;;;7.45;6.25;;;;;;;;;;4992767;28;20665;-44
2021/05/09 05:10:40;;;;;;;6.07;5.53;;;;;;;;;;4997401;28;20310;-43
2021/05/09 05:13:21;;;;;;;7.18;6.65;;;;;;;;;;5021855;28;20660;-42
2021/05/09 05:15:47;;;;;;;7.60;6.93;;;;;;;;;;5018485;28;20563;-44
2021/05/09 05:18:12;;;;;;;6.60;6.10;;;;;;;;;;5010750;28;20616;-44
2021/05/09 05:20:37;;;;;;;7.20;6.60;;;;;;;;;;4995776;28;20611;-44
2021/05/09 05:23:03;;;;;;;6.80;6.20;;;;;;;;;;5005267;28;20183;-43
2021/05/09 05:25:28;;;;;;;6.87;6.30;;;;;;;;;;5003576;28;20550;-44
2021/05/09 05:27:53;;;;;;;6.33;5.83;;;;;;;;;;5009036;28;20188;-45
2021/05/09 05:30:18;;;;;;;7.78;7.15;;;;;;;;;;5002414;28;20218;-44
2021/05/09 05:32:46;;;;;;;7.20;6.60;;;;;;;;;;4999001;28;20186;-46
2021/05/09 05:35:11;;;;;;;7.00;6.50;;;;;;;;;;5007559;28;20681;-45
2021/05/09 05:37:36;;;;;;;6.90;6.30;;;;;;;;;;5008624;28;21149;-45
2021/05/09 05:40:02;;;;;;;6.90;6.40;;;;;;;;;;5007021;28;20194;-45
2021/05/09 05:42:27;;;;;;;6.47;5.97;;;;;;;;;;4999692;28;20220;-44
2021/05/09 05:44:52;;;;;;;6.80;6.20;;;;;;;;;;5006298;28;20179;-44
2021/05/09 05:47:17;;;;;;;7.47;6.87;;;;;;;;;;5008739;28;20303;-45
2021/05/09 05:49:42;;;;;;;6.90;6.35;;;;;;;;;;5008401;28;20674;-44
2021/05/09 05:52:08;;;;;;;7.30;6.23;;;;;;;;;;5007087;28;20536;-44
2021/05/09 05:54:33;;;;;;;6.40;5.82;;;;;;;;;;5008505;28;20208;-44
2021/05/09 05:56:58;;;;;;;7.30;6.63;;;;;;;;;;5003400;28;20178;-44
2021/05/09 05:59:23;;;;;;;6.80;6.10;;;;;;;;;;5006611;28;20190;-44
2021/05/09 06:01:48;;;;;;;7.07;6.43;;;;;;;;;;5005546;28;20689;-44
2021/05/09 06:04:13;;;;;;;6.78;6.20;;;;;;;;;;5004687;28;20172;-45
2021/05/09 06:06:39;;;;;;;6.80;6.20;;;;;;;;;;5005934;28;20218;-45
2021/05/09 06:09:04;;;;;;;6.53;5.93;;;;;;;;;;5004092;28;20225;-44
2021/05/09 06:11:29;;;;;;;5.53;5.10;;;;;;;;;;5006719;28;20588;-45
2021/05/09 06:13:54;;;;;;;6.40;5.90;;;;;;;;;;5008281;28;20172;-45
2021/05/09 06:16:19;;;;;;;7.13;6.43;;;;;;;;;;5002821;28;20277;-45
2021/05/09 06:18:44;;;;;;;7.10;6.60;;;;;;;;;;5007987;28;20608;-44
2021/05/09 06:21:10;;;;;;;6.78;6.07;;;;;;;;;;5005624;28;20188;-43
2021/05/09 06:23:35;;;;;;;6.90;6.30;;;;;;;;;;5007499;28;20271;-44
2021/05/09 06:26:00;;;;;;;6.43;5.83;;;;;;;;;;5006090;28;20239;-46
2021/05/09 06:28:25;;;;;;;6.70;6.10;;;;;;;;;;4995409;28;20169;-45
2021/05/09 06:30:50;;;;;;;6.53;5.80;;;;;;;;;;4999786;28;20247;-45
2021/05/09 06:33:15;;;;;;;6.18;5.68;;;;;;;;;;5000286;28;20694;-45
2021/05/09 06:35:41;;;;;;;5.93;5.43;;;;;;;;;;5008058;28;20159;-45
2021/05/09 06:38:07;;;;;;;5.77;5.30;;;;;;;;;;5014698;28;20271;-46
2021/05/09 06:40:33;;;;;;;5.50;5.00;;;;;;;;;;5004443;28;20213;-45
2021/05/09 06:42:59;;;;;;;6.20;5.70;;;;;;;;;;4997051;28;20185;-45
2021/05/09 06:45:26;;;;;;;6.20;5.70;;;;;;;;;;4994261;28;20686;-46
2021/05/09 06:47:52;;;;;;;6.30;5.80;;;;;;;;;;5007710;28;20187;-45
2021/05/09 06:50:17;;;;;;;6.40;5.90;;;;;;;;;;5002933;28;21016;-45
2021/05/09 06:52:42;;;;;;;5.90;5.50;;;;;;;;;;5002229;28;20200;-44
2021/05/09 06:55:08;;;;;;;5.10;4.70;;;;;;;;;;5010678;28;20175;-45
2021/05/09 06:57:34;;;;;;;5.97;5.47;;;;;;;;;;4996366;28;20181;-44
2021/05/09 06:59:59;;;;;;;6.10;5.70;;;;;;;;;;4999092;28;20613;-44
2021/05/09 07:02:24;;;;;;;5.00;4.60;;;;;;;;;;5005708;28;20180;-44
2021/05/09 07:04:49;;;;;;;6.40;5.90;;;;;;;;;;5002442;28;20207;-44
2021/05/09 07:07:14;;;;;;;6.13;5.57;;;;;;;;;;4994938;28;20183;-44
2021/05/09 07:09:39;;;;;;;5.80;5.40;;;;;;;;;;5002765;28;20232;-45
2021/05/09 07:12:05;;;;;;;5.77;5.37;;;;;;;;;;4993747;28;20729;-43
2021/05/09 07:14:30;;;;;;;5.30;4.90;;;;;;;;;;5000511;28;20180;-45
2021/05/09 07:16:57;;;;;;;6.03;5.22;;;;;;;;;;5004050;28;20998;-44
2021/05/09 07:19:22;;;;;;;6.17;4.93;;;;;;;;;;5007268;28;20183;-45
2021/05/09 07:21:52;;;;;;;5.90;5.30;;;;;;;;;;5007567;28;20976;-44
2021/05/09 07:24:17;;;;;;;5.27;4.87;;;;;;;;;;5008288;28;20189;-45
2021/05/09 07:26:43;;;;;;;4.80;4.30;;;;;;;;;;5009843;28;20603;-45
2021/05/09 07:29:08;;;;;;;4.40;4.10;;;;;;;;;;4997694;28;20214;-44
2021/05/09 07:31:34;;;;;;;4.22;3.92;;;;;;;;;;5012967;28;20611;-45
2021/05/09 07:33:59;;;;;;;4.27;3.87;;;;;;;;;;5006630;28;20243;-45
2021/05/09 07:36:24;;;;;;;4.28;3.92;;;;;;;;;;5008167;28;20615;-45
2021/05/09 07:38:50;;;;;;;4.80;4.37;;;;;;;;;;5002097;28;20192;-42
2021/05/09 07:41:15;;;;;;;3.50;3.20;;;;;;;;;;4991483;28;20195;-43
2021/05/09 07:43:40;;;;;;;3.75;3.45;;;;;;;;;;5000579;28;20215;-49
2021/05/09 07:46:05;;;;;;;3.20;3.00;;;;;;;;;;4999131;28;20225;-44
2021/05/09 07:48:30;;;;;;;3.33;3.13;;;;;;;;;;5010969;28;20175;-44
2021/05/09 07:50:55;;;;;;;3.53;3.22;;;;;;;;;;4999589;28;20207;-44
2021/05/09 07:53:21;;;;;;;3.90;3.43;;;;;;;;;;5009221;28;20194;-45
2021/05/09 07:55:46;;;;;;;3.43;3.23;;;;;;;;;;5012483;28;20195;-44
2021/05/09 07:58:14;;;;;;;3.50;3.20;;;;;;;;;;4991604;28;20241;-45
2021/05/09 08:00:39;;;;;;;3.20;3.00;;;;;;;;;;5005083;28;20183;-45
2021/05/09 08:03:04;;;;;;;3.28;2.97;;;;;;;;;;4994177;28;20595;-45
2021/05/09 08:05:29;;;;;;;3.80;3.50;;;;;;;;;;4998911;28;20234;-46
2021/05/09 08:07:55;;;;;;;3.15;2.95;;;;;;;;;;5009124;28;20686;-45
2021/05/09 08:10:21;;;;;;;3.57;3.27;;;;;;;;;;5007632;28;20231;-45
2021/05/09 08:12:46;;;;;;;3.40;3.20;;;;;;;;;;5010576;28;20275;-45
2021/05/09 08:15:12;;;;;;;4.50;3.17;;;;;;;;;;4998979;28;21108;-49
2021/05/09 08:17:38;;;;;;;3.73;3.43;;;;;;;;;;5007895;28;20184;-43
2021/05/09 08:20:04;;;;;;;4.17;3.37;;;;;;;;;;5010589;28;20595;-48
2021/05/09 08:22:29;;;;;;;4.07;3.67;;;;;;;;;;5010686;28;20250;-45
2021/05/09 08:24:54;;;;;;;3.53;3.28;;;;;;;;;;5019033;28;20184;-45
2021/05/09 08:27:19;;;;;;;3.55;3.25;;;;;;;;;;5009636;28;20220;-45
2021/05/09 08:29:44;;;;;;;3.97;3.60;;;;;;;;;;4993798;28;20220;-45
2021/05/09 08:32:09;;;;;;;4.70;3.40;;;;;;;;;;5004461;28;20174;-46
2021/05/09 08:34:35;;;;;;;3.25;3.05;;;;;;;;;;5003774;28;20182;-45
2021/05/09 08:37:00;;;;;;;4.50;3.70;;;;;;;;;;4994050;28;20177;-45
2021/05/09 08:39:26;;;;;;;5.60;3.80;;;;;;;;;;4993128;28;20628;-45
2021/05/09 08:41:51;;;;;;;6.33;4.83;;;;;;;;;;4990435;28;20202;-45
2021/05/09 08:44:16;;;;;;;5.37;4.97;;;;;;;;;;5001530;28;20556;-45
2021/05/09 08:46:44;;;;;;;4.03;3.83;;;;;;;;;;4990253;28;20228;-45
2021/05/09 08:49:11;;;;;;;4.97;4.57;;;;;;;;;;4991061;28;20552;-45
2021/05/09 08:51:37;;;;;;;4.63;4.33;;;;;;;;;;4990334;28;20666;-44
2021/05/09 08:54:02;;;;;;;8.10;3.83;;;;;;;;;;5020104;28;20698;-44
2021/05/09 08:56:27;;;;;;;4.27;3.77;;;;;;;;;;5013201;28;20244;-44
2021/05/09 08:58:53;;;;;;;4.63;3.80;;;;;;;;;;4991908;28;20662;-50
2021/05/09 09:01:18;;;;;;;3.60;3.30;;;;;;;;;;5015428;28;20229;-44
2021/05/09 09:03:44;;;;;;;2.93;2.73;;;;;;;;;;5029467;28;20309;-45
2021/05/09 09:06:14;;;;;;;3.90;2.70;;;;;;;;;;5010321;28;20185;-44
2021/05/09 09:08:52;;;;;;;2.87;2.67;;;;;;;;;;5007879;28;20624;-44
2021/05/09 09:11:27;;;;;;;3.17;2.67;;;;;;;;;;4991175;28;20669;-44
2021/05/09 09:14:09;;;;;;;4.77;3.20;;;;;;;;;;4990993;28;20711;-44
2021/05/09 09:16:35;;;;;;;2.90;2.70;;;;;;;;;;4998823;28;21174;-44
2021/05/09 09:19:09;;;;;;;2.60;2.40;;;;;;;;;;5009412;28;20627;-44
2021/05/09 09:21:34;;;;;;;2.87;2.60;;;;;;;;;;5009092;28;20176;-44
2021/05/09 09:24:04;;;;;;;2.57;2.37;;;;;;;;;;5008202;28;20655;-45
2021/05/09 09:26:46;;;;;;;2.60;2.40;;;;;;;;;;5007889;28;20192;-46
2021/05/09 09:29:20;;;;;;;2.97;2.47;;;;;;;;;;5017735;28;20707;-44
2021/05/09 09:31:46;;;;;;;3.00;2.80;;;;;;;;;;5001045;28;20661;-45
2021/05/09 09:34:12;;;;;;;2.80;2.50;;;;;;;;;;5008979;28;21154;-45
2021/05/09 09:36:37;;;;;;;2.03;1.93;;;;;;;;;;5007755;28;20590;-45
2021/05/09 09:39:04;;;;;;;5.47;2.70;;;;;;;;;;5008965;28;20174;-45
2021/05/09 09:41:29;;;;;;;2.60;2.40;;;;;;;;;;5004968;28;20185;-45
2021/05/09 09:44:01;;;;;;;2.70;2.60;;;;;;;;;;4990682;28;20632;-45
2021/05/09 09:46:31;;;;;;;2.97;2.67;;;;;;;;;;4995997;28;20209;-45
2021/05/09 09:48:56;;;;;;;2.77;2.57;;;;;;;;;;5009196;28;20585;-45
2021/05/09 09:51:21;;;;;;;2.57;2.37;;;;;;;;;;5008400;28;20651;-45
2021/05/09 09:53:46;;;;;;;3.17;2.97;;;;;;;;;;5008954;28;20185;-46
2021/05/09 09:56:13;;;;;;;2.73;2.53;;;;;;;;;;5007919;28;20191;-45
2021/05/09 09:58:39;;;;;;;2.50;2.33;;;;;;;;;;5008310;28;20227;-46
2021/05/09 10:01:04;;;;;;;3.83;2.90;;;;;;;;;;4997067;28;20610;-45
2021/05/09 10:03:29;;;;;;;3.25;3.05;;;;;;;;;;5008468;28;20587;-44
2021/05/09 10:05:56;;;;;;;3.30;3.10;;;;;;;;;;4997375;28;20177;-44
2021/05/09 10:08:23;;;;;;;2.80;2.60;;;;;;;;;;5002677;28;20177;-44
2021/05/09 10:10:49;;;;;;;3.87;3.03;;;;;;;;;;5008421;28;20653;-44
2021/05/09 10:13:14;;;;;;;4.20;3.17;;;;;;;;;;5004116;28;20613;-45
2021/05/09 10:15:39;;;;;;;3.27;3.00;;;;;;;;;;4999451;28;20619;-45
2021/05/09 10:18:06;;;;;;;3.42;3.13;;;;;;;;;;5008428;28;20446;-45
2021/05/09 10:20:31;;;;;;;3.40;2.80;;;;;;;;;;5007735;28;20187;-45
2021/05/09 10:23:06;;;;;;;2.90;2.70;;;;;;;;;;5005550;28;20612;-44
2021/05/09 10:25:41;;;;;;;3.37;2.97;;;;;;;;;;5001230;28;20209;-44
2021/05/09 10:28:10;;;;;;;2.53;2.30;;;;;;;;;;5007935;28;20612;-44
2021/05/09 10:30:47;;;;;;;2.50;2.07;;;;;;;;;;5003618;28;20670;-47
2021/05/09 10:33:35;;;;;;;2.03;1.93;;;;;;;;;;4988157;28;20634;-45
2021/05/09 10:36:00;;;;;;;1.90;1.80;;;;;;;;;;5015722;28;20678;-45
2021/05/09 10:38:25;;;;;;;2.07;1.97;;;;;;;;;;5017888;28;20991;-45
2021/05/09 10:41:08;;;;;;;2.87;2.63;;;;;;;;;;4989783;28;20181;-45
2021/05/09 10:43:33;;;;;;;2.20;2.10;;;;;;;;;;4988222;28;20181;-45
2021/05/09 10:45:58;;;;;;;2.40;2.20;;;;;;;;;;4994961;28;20978;-45
2021/05/09 10:48:26;;;;;;;2.97;2.40;;;;;;;;;;5001517;28;20216;-45
2021/05/09 10:51:06;;;;;;;2.20;2.00;;;;;;;;;;5005192;28;20284;-45
2021/05/09 10:53:35;;;;;;;2.47;2.27;;;;;;;;;;5011074;28;21126;-46
2021/05/09 10:56:03;;;;;;;2.57;2.37;;;;;;;;;;4994784;28;20618;-46
2021/05/09 10:58:41;;;;;;;2.53;2.40;;;;;;;;;;5001998;28;20704;-46
2021/05/09 11:01:06;;;;;;;2.30;2.10;;;;;;;;;;5000619;28;20714;-46
2021/05/09 11:03:34;;;;;;;2.05;1.95;;;;;;;;;;5003574;28;20713;-46
2021/05/09 11:06:18;;;;;;;2.40;1.80;;;;;;;;;;5013555;28;20189;-46
2021/05/09 11:08:43;;;;;;;2.10;2.00;;;;;;;;;;5007940;28;20833;-45
2021/05/09 11:11:31;;;;;;;2.50;2.30;;;;;;;;;;5002631;28;20749;-47
2021/05/09 11:13:56;;;;;;;2.63;2.43;;;;;;;;;;5001258;28;20734;-46
2021/05/09 11:16:21;;;;;;;3.40;2.40;;;;;;;;;;5007422;28;20583;-46
2021/05/09 11:18:55;;;;;;;3.40;2.43;;;;;;;;;;5001241;28;20255;-46
2021/05/09 11:21:20;;;;;;;2.43;2.33;;;;;;;;;;4995739;28;20219;-45
2021/05/09 11:23:46;;;;;;;2.67;2.47;;;;;;;;;;5011434;28;20677;-46
2021/05/09 11:26:23;;;;;;;2.60;2.40;;;;;;;;;;4993839;28;20245;-46
2021/05/09 11:29:05;;;;;;;2.87;2.57;;;;;;;;;;4998481;28;20244;-45
2021/05/09 11:31:30;;;;;;;2.80;2.53;;;;;;;;;;5008612;28;20662;-45
2021/05/09 11:33:55;;;;;;;2.70;2.50;;;;;;;;;;4991954;28;20592;-45
2021/05/09 11:36:24;;;;;;;2.57;2.47;;;;;;;;;;4997798;28;20190;-45
2021/05/09 11:38:49;;;;;;;10.90;2.80;;;;;;;;;;5014451;28;20199;-46
2021/05/09 11:41:14;;;;;;;2.90;2.70;;;;;;;;;;4997625;28;21167;-45
2021/05/09 11:44:00;;;;;;;3.07;2.87;;;;;;;;;;5001755;28;20191;-46
2021/05/09 11:46:32;;;;;;;2.93;2.73;;;;;;;;;;5000153;28;20916;-46
2021/05/09 11:49:12;;;;;;;3.60;3.30;;;;;;;;;;5002616;28;21077;-46
2021/05/09 11:51:54;;;;;;;3.30;2.67;;;;;;;;;;5018550;28;20599;-46
2021/05/09 11:54:23;;;;;;;2.60;2.50;;;;;;;;;;5005696;28;20592;-46
2021/05/09 11:56:51;;;;;;;3.17;2.87;;;;;;;;;;5004907;28;20591;-45
2021/05/09 11:59:35;;;;;;;2.97;2.77;;;;;;;;;;4999257;28;20634;-46
2021/05/09 12:02:02;;;;;;;2.87;2.67;;;;;;;;;;5025216;28;20716;-45
2021/05/09 12:04:31;;;;;;;3.03;2.83;;;;;;;;;;5011900;28;20589;-47
2021/05/09 12:07:00;;;;;;;3.10;2.90;;;;;;;;;;4998613;28;20596;-46
2021/05/09 12:09:26;;;;;;;2.90;2.70;;;;;;;;;;5010194;28;20743;-46
2021/05/09 12:11:51;;;;;;;3.00;2.80;;;;;;;;;;5020958;28;20728;-46
2021/05/09 12:14:17;;;;;;;3.23;3.03;;;;;;;;;;5027505;28;20185;-46
2021/05/09 12:16:42;;;;;;;3.60;3.30;;;;;;;;;;5008621;28;20183;-46
2021/05/09 12:19:08;;;;;;;3.40;3.20;;;;;;;;;;5016882;28;20222;-46
2021/05/09 12:21:33;;;;;;;2.97;2.73;;;;;;;;;;5012683;28;20184;-46
2021/05/09 12:24:16;;;;;;;5.23;3.30;;;;;;;;;;5007264;28;20896;-46
2021/05/09 12:26:55;;;;;;;3.40;3.20;;;;;;;;;;5011746;28;20166;-45
2021/05/09 12:29:20;;;;;;;3.03;2.83;;;;;;;;;;5009191;28;20617;-47
2021/05/09 12:31:45;;;;;;;3.10;2.90;;;;;;;;;;5013056;28;20654;-46
2021/05/09 12:34:10;;;;;;;3.10;2.90;;;;;;;;;;5014348;28;20173;-44
2021/05/09 12:36:36;;;;;;;3.20;2.90;;;;;;;;;;5018158;28;20183;-46
2021/05/09 12:39:03;;;;;;;3.00;2.80;;;;;;;;;;5012084;28;20191;-46
2021/05/09 12:41:28;;;;;;;3.37;3.13;;;;;;;;;;5013409;28;20203;-53
2021/05/09 12:43:55;;;;;;;3.20;3.00;;;;;;;;;;4997415;28;20704;-46
2021/05/09 12:46:49;;;;;;;3.30;3.10;;;;;;;;;;5013786;28;20562;-46
2021/05/09 12:49:16;;;;;;;3.23;2.97;;;;;;;;;;5013708;28;20623;-45
2021/05/09 12:52:11;;;;;;;3.70;3.40;;;;;;;;;;5020056;28;20577;-45
2021/05/09 12:54:44;;;;;;;3.90;3.60;;;;;;;;;;5008711;28;21102;-46
2021/05/09 12:57:13;;;;;;;3.77;3.37;;;;;;;;;;4995745;28;20615;-44
2021/05/09 12:59:48;;;;;;;3.10;2.90;;;;;;;;;;5006384;28;20585;-44
2021/05/09 13:02:14;;;;;;;4.37;3.13;;;;;;;;;;5012634;28;21083;-45
2021/05/09 13:04:44;;;;;;;3.50;3.30;;;;;;;;;;5004628;28;20610;-45
2021/05/09 13:07:12;;;;;;;3.00;2.90;;;;;;;;;;5017732;28;20210;-45
2021/05/09 13:09:37;;;;;;;4.40;2.80;;;;;;;;;;5008394;28;21093;-44
2021/05/09 13:12:03;;;;;;;3.28;3.03;;;;;;;;;;5013152;28;21071;-44
2021/05/09 13:14:45;;;;;;;3.53;3.20;;;;;;;;;;5004679;28;20212;-45
2021/05/09 13:17:11;;;;;;;3.70;3.37;;;;;;;;;;4996826;28;20604;-45
2021/05/09 13:19:38;;;;;;;3.20;3.00;;;;;;;;;;4995618;28;20585;-45
2021/05/09 13:22:03;;;;;;;2.80;2.70;;;;;;;;;;5008017;28;20188;-45
2021/05/09 13:24:28;;;;;;;5.10;3.43;;;;;;;;;;5000136;28;20588;-46
2021/05/09 13:26:53;;;;;;;5.15;3.85;;;;;;;;;;5012722;28;20187;-45
2021/05/09 13:29:18;;;;;;;3.20;2.90;;;;;;;;;;5017647;28;20556;-45
2021/05/09 13:31:44;;;;;;;4.53;3.53;;;;;;;;;;5000977;28;21726;-45
2021/05/09 13:34:09;;;;;;;3.38;3.08;;;;;;;;;;5012594;28;20223;-45
2021/05/09 13:36:35;;;;;;;4.53;3.00;;;;;;;;;;5008569;28;20524;-45
2021/05/09 13:39:00;;;;;;;4.60;3.00;;;;;;;;;;5009040;28;20188;-45
2021/05/09 13:41:26;;;;;;;3.83;3.50;;;;;;;;;;5003656;28;20579;-45
2021/05/09 13:43:51;;;;;;;3.47;3.28;;;;;;;;;;5001089;28;20669;-45
2021/05/09 13:46:16;;;;;;;4.07;3.80;;;;;;;;;;5005901;28;20935;-45
2021/05/09 13:48:41;;;;;;;3.50;3.30;;;;;;;;;;5005992;28;20200;-46
2021/05/09 13:51:06;;;;;;;3.60;3.40;;;;;;;;;;5001823;28;20220;-44
2021/05/09 13:53:32;;;;;;;3.70;3.50;;;;;;;;;;5007517;28;20713;-45
2021/05/09 13:55:57;;;;;;;3.83;3.53;;;;;;;;;;5003092;28;20188;-44
2021/05/09 13:58:22;;;;;;;4.80;4.40;;;;;;;;;;5019347;28;20527;-45
2021/05/09 14:00:47;;;;;;;4.45;4.10;;;;;;;;;;5007472;28;20567;-45
2021/05/09 14:03:13;;;;;;;7.20;4.50;;;;;;;;;;5007349;28;20181;-44
2021/05/09 14:05:39;;;;;;;4.00;3.63;;;;;;;;;;5006588;28;20713;-44
2021/05/09 14:08:04;;;;;;;4.72;4.32;;;;;;;;;;4989541;28;20981;-44
2021/05/09 14:10:29;;;;;;;4.40;4.00;;;;;;;;;;5008649;28;20703;-44
2021/05/09 14:12:54;;;;;;;5.50;4.50;;;;;;;;;;5001390;28;20308;-44
2021/05/09 14:15:19;;;;;;;4.30;4.00;;;;;;;;;;4997204;28;20189;-45
2021/05/09 14:17:44;;;;;;;4.60;4.20;;;;;;;;;;5000701;28;20372;-46
2021/05/09 14:20:10;;;;;;;3.93;3.63;;;;;;;;;;4993319;28;20181;-44
2021/05/09 14:22:35;;;;;;;4.20;3.90;;;;;;;;;;4989347;28;20224;-45
2021/05/09 14:25:00;;;;;;;4.55;4.15;;;;;;;;;;5006341;28;20184;-45
2021/05/09 14:27:25;;;;;;;5.07;4.13;;;;;;;;;;5010741;28;20188;-45
2021/05/09 14:29:51;;;;;;;4.63;4.30;;;;;;;;;;5012525;28;20667;-45
2021/05/09 14:32:17;;;;;;;4.87;4.17;;;;;;;;;;4999473;28;20185;-45
2021/05/09 14:34:42;;;;;;;3.70;3.50;;;;;;;;;;4997293;28;20192;-46
2021/05/09 14:37:07;;;;;;;3.95;3.65;;;;;;;;;;5011084;28;20184;-46
2021/05/09 14:39:32;;;;;;;4.63;4.23;;;;;;;;;;5010987;28;20183;-46